Hauptseite
METAR-TAF:

METAR-TAF

Flughäfen :

Flughafen Niamey

Niamey, Niger

Breite: 13-29N, Länge: 002-10E, Höhe: 223 m

Beobachtung

Neuester Wetterbericht von vor 24 Minuten, um 05:00 UTC
Wind 2 kt aus Nord/Nordost
Temperatur 27°C
Luftfeuchtigkeit 15%
Luftdruck 1008 hPa
Sichtweite: 6000 m

METAR: DRRN 190500Z 03002KT 6000 NSC 27/M02 Q1008 NOSIG

Zeit: 06:24 (05:24 UTC)

Prognose

Neuester Wetterbericht von vor 12 Stunden und 24 Minuten, um 17:00 UTC
Gültige Prognose vom 18 um 18 UTC bis 19 um 24 UTC
Wind 8 kt aus Ost/Nordost
Sichtweite: 5000 m
verbreitet Staub
Zeitweise
vom 18 um 18 UTC bis 18 um 21 UTC
Sichtweite: 3500 m
Zeitweise
vom 19 um 06 UTC bis 19 um 09 UTC
Sichtweite: 3000 m
Übergehend zu
vom 19 um 07 UTC bis 19 um 09 UTC
Wind 10 kt aus Ost/Südost

TAF: DRRN 181700Z 1818/1924 06008KT 5000 DU NSC TEMPO 1818/1821 3500 TEMPO 1906/1909 3000 BECMG 1907/1909 12010KT

Wetterbeobachtungen und Prognosen von mehr als 4000 Flughäfen (METAR und TAF Bericht).

Die verfügbaren Stationen werden durch gelbe und rote Markierungen auf der Karte dargestellt.

Führen Sie die Maus auf sie, um den Namen der Station zu sehen.

Darauf klicken, um die Beobachtung von Wetterbeobachtungen und Prognosen zu sehen.

Um die Karte zu ändern : klicken Sie auf den grünen Tasten mit einem schwarzen Kreuz Zum Vergrößern, auf den grünen Button mit einem Gedankenstrich zu verkleinern, oder auf die grünen Pfeile für benachbarte Karten.


METAR-TAF: